Time;durP1;ratioP1;P1;durP2;ratioP2;P2;SDS_P1;SDS_P2;PMS_P1;PMS_P2;Temp;Humidity;BMP_temperature;BMP_pressure;BME280_temperature;BME280_humidity;BME280_pressure;Samples;Min_cycle;Max_cycle;Signal;HPM_P1;HPM_P2
2023/09/22 00:00:32;;;;;;;3.25;0.80;;;;;;;21.19;49.64;99808.06;16114674;19;134315;-58
2023/09/22 00:05:55;;;;;;;2.03;0.80;;;;;;;21.18;49.59;99807.22;16114692;19;131577;-58
2023/09/22 00:11:17;;;;;;;1.17;0.60;;;;;;;21.17;49.94;99816.69;16113279;19;130733;-57
2023/09/22 00:16:39;;;;;;;1.75;0.80;;;;;;;21.16;49.77;99820.63;16113048;19;130743;-56
2023/09/22 00:22:02;;;;;;;1.00;0.60;;;;;;;21.16;49.41;99806.72;16112147;19;129976;-57
2023/09/22 00:27:24;;;;;;;1.90;0.60;;;;;;;21.15;49.26;99813.41;16113015;19;129810;-55
2023/09/22 00:32:46;;;;;;;2.67;0.60;;;;;;;21.14;49.69;99789.50;16110573;19;130335;-56
2023/09/22 00:38:10;;;;;;;0.98;0.57;;;;;;;21.14;49.68;99789.50;16110732;19;130496;-58
2023/09/22 00:43:32;;;;;;;2.08;0.60;;;;;;;21.14;49.86;99788.63;16109113;19;129801;-52
2023/09/22 00:48:57;;;;;;;0.98;0.50;;;;;;;21.13;49.60;99786.97;16111540;19;129963;-56
2023/09/22 00:54:19;;;;;;;0.97;0.60;;;;;;;21.12;49.61;99783.38;16108448;19;130467;-54
2023/09/22 00:59:42;;;;;;;0.77;0.60;;;;;;;21.11;49.73;99780.91;16104586;19;133076;-56
2023/09/22 01:05:07;;;;;;;0.85;0.43;;;;;;;21.10;49.69;99765.34;16106946;19;129875;-54
2023/09/22 01:10:38;;;;;;;0.50;0.50;;;;;;;21.11;49.26;99769.78;16105653;19;130625;-54
2023/09/22 01:16:00;;;;;;;0.80;0.50;;;;;;;21.09;49.65;99774.78;16105943;19;130011;-53
2023/09/22 01:21:34;;;;;;;1.15;0.70;;;;;;;21.10;49.77;99776.47;16112615;19;130789;-55
2023/09/22 01:26:56;;;;;;;0.77;0.30;;;;;;;21.09;49.91;99766.47;16122009;19;129620;-57
2023/09/22 01:32:18;;;;;;;0.90;0.50;;;;;;;21.06;49.91;99767.84;16121317;19;130294;-60
2023/09/22 01:38:14;;;;;;;0.68;0.50;;;;;;;21.06;49.66;99770.63;16121042;19;129583;-50
2023/09/22 01:43:37;;;;;;;0.70;0.50;;;;;;;21.04;49.81;99756.22;16122904;19;129745;-51
2023/09/22 01:48:59;;;;;;;1.90;0.50;;;;;;;21.05;49.44;99755.06;16120551;19;129909;-51
2023/09/22 01:54:21;;;;;;;0.45;0.40;;;;;;;21.04;49.67;99759.00;16120349;19;130484;-52
2023/09/22 01:59:43;;;;;;;1.42;0.60;;;;;;;21.04;49.57;99761.78;16118972;19;130692;-58
2023/09/22 02:05:07;;;;;;;1.20;0.50;;;;;;;21.03;49.88;99760.09;16119347;19;129292;-56
2023/09/22 02:10:30;;;;;;;0.47;0.30;;;;;;;21.03;49.69;99754.56;16123606;19;130804;-56
2023/09/22 02:15:52;;;;;;;1.52;0.60;;;;;;;21.02;49.37;99759.25;16120503;19;131044;-55
2023/09/22 02:21:14;;;;;;;1.20;0.30;;;;;;;21.02;49.83;99758.44;16119579;19;130278;-56
2023/09/22 02:26:36;;;;;;;1.95;0.40;;;;;;;21.01;49.37;99763.16;16118513;19;130926;-53
2023/09/22 02:31:59;;;;;;;0.38;0.30;;;;;;;21.00;49.84;99767.06;16113326;19;129031;-55
2023/09/22 02:37:21;;;;;;;1.33;0.43;;;;;;;21.00;49.34;99769.84;16116814;19;131337;-55
2023/09/22 02:42:43;;;;;;;0.40;0.30;;;;;;;21.00;49.83;99760.69;16120168;19;129478;-56
2023/09/22 02:48:06;;;;;;;0.85;0.38;;;;;;;21.00;49.66;99766.25;16112791;19;130248;-56
2023/09/22 02:53:28;;;;;;;0.93;0.47;;;;;;;20.99;49.91;99759.03;16115458;19;129322;-55
2023/09/22 02:58:50;;;;;;;1.00;0.50;;;;;;;20.98;49.82;99757.34;16116215;19;130670;-56
2023/09/22 03:04:12;;;;;;;1.60;0.45;;;;;;;20.97;49.86;99767.66;16115576;19;130692;-56
2023/09/22 03:09:34;;;;;;;0.60;0.40;;;;;;;20.97;49.35;99766.81;16115283;19;130755;-57
2023/09/22 03:14:57;;;;;;;1.58;0.40;;;;;;;20.97;49.83;99766.81;16113796;19;129617;-55
2023/09/22 03:20:19;;;;;;;0.47;0.38;;;;;;;20.95;49.71;99757.94;16119128;19;130738;-54
2023/09/22 03:25:43;;;;;;;1.00;0.40;;;;;;;20.95;49.49;99767.13;16115483;19;131270;-56
2023/09/22 03:31:06;;;;;;;0.98;0.40;;;;;;;20.93;49.62;99777.69;16116511;19;129959;-54
2023/09/22 03:36:30;;;;;;;0.38;0.30;;;;;;;20.94;49.38;99772.94;16116292;19;129769;-56
2023/09/22 03:41:54;;;;;;;0.55;0.30;;;;;;;20.94;49.57;99778.50;16114207;19;130605;-57
2023/09/22 03:47:16;;;;;;;0.75;0.38;;;;;;;20.92;49.29;99775.22;16110350;19;130890;-52
2023/09/22 03:52:42;;;;;;;0.65;0.50;;;;;;;20.90;49.73;99768.00;16111810;19;130716;-56
2023/09/22 03:58:05;;;;;;;;;;;;;;;20.86;49.47;99772.47;16121735;19;129860;-51
2023/09/22 04:03:27;;;;;;;0.60;0.32;;;;;;;20.89;49.26;99791.34;16117427;19;133944;-52
2023/09/22 04:08:49;;;;;;;0.55;0.32;;;;;;;20.87;49.62;99785.25;16119968;19;130617;-52
2023/09/22 04:14:12;;;;;;;0.80;0.47;;;;;;;20.87;49.59;99785.25;16120276;19;131006;-51
2023/09/22 04:19:36;;;;;;;0.98;0.30;;;;;;;20.88;49.53;99798.03;16117010;19;130295;-51
2023/09/22 04:25:00;;;;;;;0.50;0.40;;;;;;;20.88;49.47;99791.63;16118369;19;130510;-51
2023/09/22 04:30:24;;;;;;;0.83;0.50;;;;;;;20.87;49.64;99796.38;16119437;19;131279;-54
2023/09/22 04:35:48;;;;;;;0.95;0.57;;;;;;;20.86;49.40;99808.59;16117613;19;134274;-52
2023/09/22 04:41:10;;;;;;;0.80;0.40;;;;;;;20.86;49.12;99811.38;16118205;19;129853;-51
2023/09/22 04:46:33;;;;;;;0.80;0.50;;;;;;;20.85;49.54;99820.84;16119095;19;130289;-53
2023/09/22 04:51:56;;;;;;;0.73;0.43;;;;;;;20.85;49.22;99817.25;16116331;19;130308;-49
2023/09/22 04:57:18;;;;;;;0.50;0.40;;;;;;;20.85;49.38;99820.84;16123262;19;130445;-51
2023/09/22 05:02:41;;;;;;;2.25;0.50;;;;;;;20.85;49.52;99822.81;16125304;19;130032;-55
2023/09/22 05:08:03;;;;;;;0.57;0.45;;;;;;;20.84;49.11;99835.03;16122527;19;130606;-52
2023/09/22 05:13:26;;;;;;;0.50;0.30;;;;;;;20.84;49.31;99829.47;16122467;19;130432;-54
2023/09/22 05:18:48;;;;;;;1.67;0.55;;;;;;;20.83;49.58;99836.16;16116442;19;130780;-50
2023/09/22 05:24:11;;;;;;;7.53;0.85;;;;;;;20.82;49.17;99854.75;16117846;19;130273;-56
2023/09/22 05:29:34;;;;;;;4.00;0.85;;;;;;;20.82;49.15;99854.75;16124381;19;130710;-54
2023/09/22 05:34:56;;;;;;;7.90;0.75;;;;;;;20.83;49.37;99863.94;16127141;19;130047;-55
2023/09/22 05:40:19;;;;;;;2.50;0.63;;;;;;;20.81;49.15;99858.66;16122557;19;130101;-53
2023/09/22 05:45:42;;;;;;;4.30;1.08;;;;;;;20.80;49.51;99859.78;16121920;19;129665;-56
2023/09/22 05:51:05;;;;;;;2.65;0.63;;;;;;;20.80;49.27;99858.97;16120280;19;130143;-56
2023/09/22 05:56:27;;;;;;;4.45;0.63;;;;;;;20.79;49.24;99860.91;16122782;19;132775;-57
2023/09/22 06:01:50;;;;;;;4.78;0.77;;;;;;;20.81;49.44;99878.13;16124856;19;130675;-59
2023/09/22 06:07:14;;;;;;;4.47;0.52;;;;;;;20.84;49.23;99883.09;16125234;19;133414;-56
2023/09/22 06:12:37;;;;;;;5.72;0.70;;;;;;;20.87;49.04;99896.44;16119631;19;129917;-55
2023/09/22 06:17:59;;;;;;;4.65;0.80;;;;;;;20.94;48.97;99900.84;16120227;19;130639;-52
2023/09/22 06:23:22;;;;;;;3.10;0.60;;;;;;;21.00;48.65;99905.28;16116558;19;131472;-57
2023/09/22 06:28:44;;;;;;;4.43;0.77;;;;;;;21.06;48.59;99915.22;16119372;19;130479;-54
2023/09/22 06:34:07;;;;;;;4.45;0.75;;;;;;;21.13;48.14;99928.81;16118075;19;130717;-56
2023/09/22 06:39:30;;;;;;;5.97;0.88;;;;;;;21.18;48.15;99929.59;16119792;19;130485;-56
2023/09/22 06:44:52;;;;;;;9.82;1.05;;;;;;;21.25;48.10;99939.59;16118986;19;130486;-56
2023/09/22 06:50:14;;;;;;;8.32;0.93;;;;;;;21.30;47.84;99943.19;16115870;19;131296;-56
2023/09/22 06:55:37;;;;;;;4.47;0.63;;;;;;;21.36;48.03;99964.25;16113806;19;130414;-57
2023/09/22 07:01:25;;;;;;;5.63;0.90;;;;;;;21.40;47.53;99958.97;16111550;19;130108;-57
2023/09/22 07:06:48;;;;;;;3.95;0.70;;;;;;;21.43;48.02;99965.91;16111850;19;130158;-56
2023/09/22 07:12:10;;;;;;;4.43;0.88;;;;;;;21.47;47.50;99964.22;16118004;19;129451;-54
2023/09/22 07:17:33;;;;;;;4.43;0.80;;;;;;;21.48;47.87;99965.84;16114180;19;133003;-56
2023/09/22 07:22:56;;;;;;;4.78;0.55;;;;;;;21.50;47.76;99972.00;16119742;19;130023;-56
2023/09/22 07:28:18;;;;;;;3.80;0.73;;;;;;;21.51;47.73;99971.72;16112748;19;129991;-57
2023/09/22 07:33:43;;;;;;;2.33;0.70;;;;;;;21.53;47.64;99985.34;16111967;19;129611;-56
2023/09/22 07:39:05;;;;;;;2.93;0.50;;;;;;;21.56;47.42;99978.34;16115564;19;129995;-56
2023/09/22 07:44:28;;;;;;;3.25;0.50;;;;;;;21.60;47.39;99990.59;16116086;19;130486;-57
2023/09/22 07:49:54;;;;;;;4.60;0.73;;;;;;;21.62;47.04;99994.72;16113567;19;131646;-56
2023/09/22 07:55:16;;;;;;;2.88;0.60;;;;;;;21.65;47.08;100007.25;16116744;19;131211;-55
2023/09/22 08:00:46;;;;;;;2.75;0.70;;;;;;;21.65;46.79;100016.44;16113100;19;129382;-56
2023/09/22 08:06:12;;;;;;;2.95;0.70;;;;;;;21.69;46.61;100013.88;16114362;19;130358;-57
2023/09/22 08:11:34;;;;;;;2.63;0.60;;;;;;;21.78;46.54;100014.09;16112258;19;129341;-56
2023/09/22 08:16:56;;;;;;;2.55;0.57;;;;;;;22.13;46.38;100009.34;16112116;19;129502;-57
2023/09/22 08:22:18;;;;;;;2.70;0.80;;;;;;;23.07;44.37;100028.75;16112995;19;131397;-56
2023/09/22 08:27:40;;;;;;;2.22;0.68;;;;;;;23.02;44.04;100027.69;16115116;19;129476;-57
2023/09/22 08:33:04;;;;;;;2.05;0.60;;;;;;;22.71;44.58;100035.53;16130046;19;129132;-56
2023/09/22 08:38:27;;;;;;;2.03;0.65;;;;;;;22.52;44.80;100029.94;16125855;19;130977;-56
2023/09/22 08:43:49;;;;;;;1.23;0.50;;;;;;;22.34;44.88;100035.09;16129827;19;130037;-58
2023/09/22 08:49:11;;;;;;;0.70;0.50;;;;;;;22.18;45.37;100033.53;16126299;19;131003;-57
2023/09/22 08:54:33;;;;;;;1.95;0.63;;;;;;;22.09;45.20;100044.50;16119892;19;129858;-56
2023/09/22 08:59:56;;;;;;;1.65;0.50;;;;;;;22.02;45.55;100042.06;16127174;19;130364;-57
2023/09/22 09:05:29;;;;;;;0.95;0.40;;;;;;;21.94;45.74;100051.00;16121470;19;131190;-55
2023/09/22 09:10:51;;;;;;;1.52;0.60;;;;;;;21.87;45.95;100056.09;16127902;19;129707;-56
2023/09/22 09:16:29;;;;;;;1.55;0.50;;;;;;;21.84;45.75;100051.94;16122464;19;129013;-56
2023/09/22 09:22:05;;;;;;;1.85;0.63;;;;;;;21.83;46.05;100053.88;16122667;19;136701;-57
2023/09/22 09:27:28;;;;;;;1.33;0.47;;;;;;;21.75;46.12;100054.50;16122681;19;129823;-57
2023/09/22 09:32:50;;;;;;;1.55;0.70;;;;;;;21.73;46.14;100053.94;16123842;19;130268;-57
2023/09/22 09:38:13;;;;;;;1.55;0.50;;;;;;;21.72;46.14;100048.69;16121923;19;133216;-55
2023/09/22 09:43:42;;;;;;;2.60;0.45;;;;;;;21.69;46.13;100055.66;16129105;19;129591;-52
2023/09/22 09:49:09;;;;;;;1.23;0.60;;;;;;;21.68;46.11;100056.75;16128962;19;129665;-56
2023/09/22 09:54:34;;;;;;;1.42;0.50;;;;;;;21.69;46.30;100055.66;16122968;19;129848;-57
2023/09/22 09:59:57;;;;;;;1.17;0.40;;;;;;;21.66;46.04;100070.16;16124940;19;130484;-55
2023/09/22 10:05:21;;;;;;;1.17;0.60;;;;;;;21.65;46.12;100066.53;16119234;19;129686;-55
2023/09/22 10:10:44;;;;;;;1.37;0.47;;;;;;;21.65;46.21;100060.13;16123532;19;130077;-56
2023/09/22 10:16:11;;;;;;;1.45;0.40;;;;;;;21.65;46.27;100065.72;16127292;19;131601;-57
2023/09/22 10:21:45;;;;;;;0.98;0.50;;;;;;;21.65;46.09;100060.13;16119104;19;129486;-56
2023/09/22 10:27:13;;;;;;;1.05;0.50;;;;;;;21.64;46.08;100061.25;16120285;19;130701;-61
2023/09/22 10:32:35;;;;;;;2.28;0.40;;;;;;;21.63;46.20;100052.06;16119596;19;130530;-51
2023/09/22 10:38:00;;;;;;;1.10;0.40;;;;;;;21.61;46.04;100057.06;16122297;19;129967;-52
2023/09/22 10:43:22;;;;;;;0.30;0.25;;;;;;;21.60;46.15;100065.72;16122990;19;131097;-54
2023/09/22 10:48:44;;;;;;;1.67;0.40;;;;;;;21.56;46.13;100059.06;16122418;19;129707;-51
2023/09/22 10:54:06;;;;;;;3.05;0.50;;;;;;;21.52;46.19;100062.44;16113162;19;129692;-52
2023/09/22 10:59:35;;;;;;;2.10;0.55;;;;;;;21.51;46.37;100059.94;16116997;19;132821;-59
2023/09/22 11:04:59;;;;;;;1.38;0.30;;;;;;;21.52;45.84;100056.88;16121835;19;130975;-58
2023/09/22 11:10:24;;;;;;;1.48;0.60;;;;;;;21.54;45.65;100056.56;16120477;19;129472;-56
2023/09/22 11:15:51;;;;;;;2.05;0.65;;;;;;;21.59;45.25;100051.00;16123458;19;132303;-57
2023/09/22 11:21:13;;;;;;;1.08;0.65;;;;;;;21.59;45.38;100056.56;16120137;19;130683;-57
2023/09/22 11:26:43;;;;;;;1.02;0.47;;;;;;;21.60;44.81;100057.38;16114801;19;129978;-57
2023/09/22 11:32:08;;;;;;;0.95;0.55;;;;;;;21.56;44.66;100059.91;16117840;19;129479;-57
2023/09/22 11:37:32;;;;;;;0.73;0.50;;;;;;;21.56;44.56;100056.28;16114752;19;129856;-58
2023/09/22 11:42:55;;;;;;;1.10;0.60;;;;;;;21.54;44.72;100059.38;16120509;19;131415;-58
2023/09/22 11:48:19;;;;;;;5.70;0.70;;;;;;;21.52;44.15;100065.22;16119407;19;130278;-57
2023/09/22 11:53:45;;;;;;;1.45;0.43;;;;;;;21.54;44.09;100075.25;16116246;19;129860;-58
2023/09/22 11:59:12;;;;;;;1.55;0.47;;;;;;;21.52;44.07;100068.00;16115276;19;133650;-58
2023/09/22 12:04:37;;;;;;;2.75;0.50;;;;;;;21.52;43.87;100067.16;16110771;19;130482;-57
2023/09/22 12:10:01;;;;;;;3.30;0.47;;;;;;;21.50;44.45;100070.25;16115849;19;130570;-56
2023/09/22 12:15:23;;;;;;;1.02;0.50;;;;;;;21.49;44.39;100074.16;16114807;19;130268;-57
2023/09/22 12:20:45;;;;;;;1.05;0.50;;;;;;;21.48;44.53;100080.78;16114208;19;131114;-58
2023/09/22 12:26:09;;;;;;;2.25;0.60;;;;;;;21.48;44.40;100071.59;16120122;19;130165;-58
2023/09/22 12:31:31;;;;;;;1.05;0.40;;;;;;;21.46;44.53;100073.84;16110893;19;130378;-57
2023/09/22 12:36:53;;;;;;;1.25;0.38;;;;;;;21.44;44.29;100070.53;16115886;19;129313;-57
2023/09/22 12:42:16;;;;;;;0.70;0.40;;;;;;;21.42;44.63;100073.56;16111496;19;130760;-56
2023/09/22 12:47:38;;;;;;;2.65;0.50;;;;;;;21.42;44.30;100065.22;16109834;19;131265;-57
2023/09/22 12:53:00;;;;;;;1.25;0.43;;;;;;;21.40;44.44;100063.84;16112783;19;130900;-58
2023/09/22 12:58:26;;;;;;;1.10;0.50;;;;;;;21.40;44.42;100073.06;16111889;19;131036;-57
2023/09/22 13:03:49;;;;;;;1.25;0.50;;;;;;;21.41;45.01;100065.53;16113067;19;128928;-58
2023/09/22 13:09:11;;;;;;;1.45;0.47;;;;;;;21.42;44.75;100073.56;16113642;19;129620;-58
2023/09/22 13:14:33;;;;;;;3.58;0.50;;;;;;;21.44;45.21;100071.34;16110363;19;129666;-58
2023/09/22 13:19:56;;;;;;;1.42;0.43;;;;;;;21.44;44.75;100070.53;16123978;19;129318;-58
2023/09/22 13:25:18;;;;;;;2.30;0.47;;;;;;;21.42;44.31;100073.56;16125621;19;130381;-57
2023/09/22 13:30:53;;;;;;;1.80;0.63;;;;;;;21.43;44.20;100077.22;16120243;19;129532;-58
2023/09/22 13:36:20;;;;;;;1.65;0.55;;;;;;;21.42;44.22;100079.13;16116666;19;129730;-58
2023/09/22 13:41:42;;;;;;;0.82;0.60;;;;;;;21.42;43.95;100073.56;16112145;19;130730;-58
2023/09/22 13:47:04;;;;;;;1.27;0.60;;;;;;;21.42;44.12;100078.31;16119585;19;129864;-58
2023/09/22 13:52:27;;;;;;;1.08;0.50;;;;;;;21.40;44.43;100075.84;16118612;19;130270;-59
2023/09/22 13:57:49;;;;;;;2.33;0.50;;;;;;;21.42;44.47;100083.88;16124221;19;131491;-57
2023/09/22 14:03:11;;;;;;;2.35;0.80;;;;;;;21.41;44.31;100079.44;16120626;19;129573;-58
2023/09/22 14:08:33;;;;;;;1.77;0.50;;;;;;;21.40;44.67;100075.84;16121832;19;131350;-59
2023/09/22 14:13:55;;;;;;;2.45;0.50;;;;;;;21.40;44.94;100080.56;16124210;19;130346;-60
2023/09/22 14:19:18;;;;;;;1.42;0.60;;;;;;;21.38;44.50;100086.41;16123759;19;129602;-53
2023/09/22 14:24:41;;;;;;;1.42;0.60;;;;;;;21.38;44.81;100080.84;16119932;19;129983;-59
2023/09/22 14:30:04;;;;;;;1.83;0.80;;;;;;;21.36;44.68;100070.00;16119010;19;129546;-59
2023/09/22 14:35:26;;;;;;;3.50;0.80;;;;;;;21.37;44.90;100076.41;16121450;19;130436;-58
2023/09/22 14:40:48;;;;;;;1.60;0.73;;;;;;;21.37;44.73;100063.31;16115860;19;130314;-59
2023/09/22 14:46:17;;;;;;;4.80;0.68;;;;;;;21.37;44.54;100065.28;16118392;19;130972;-58
2023/09/22 14:51:40;;;;;;;2.38;0.70;;;;;;;21.36;44.69;100071.94;16117558;19;129855;-56
2023/09/22 14:57:03;;;;;;;6.93;0.80;;;;;;;21.35;44.68;100073.06;16119761;19;129017;-58
2023/09/22 15:02:25;;;;;;;3.10;0.50;;;;;;;21.36;44.50;100069.16;16114356;19;130636;-59
2023/09/22 15:07:48;;;;;;;4.50;0.70;;;;;;;21.34;44.83;100076.97;16121854;19;130796;-59
2023/09/22 15:13:15;;;;;;;2.13;0.50;;;;;;;21.34;44.47;100088.09;16118444;19;130928;-59
2023/09/22 15:18:39;;;;;;;2.55;0.77;;;;;;;21.32;44.82;100084.75;16114814;19;129242;-59
2023/09/22 15:24:03;;;;;;;2.75;0.50;;;;;;;21.32;44.48;100091.16;16116513;19;130537;-59
2023/09/22 15:29:26;;;;;;;5.03;0.77;;;;;;;21.31;44.79;100099.78;16118341;19;131300;-59
2023/09/22 15:34:49;;;;;;;1.40;0.60;;;;;;;21.31;44.78;100105.34;16113118;19;134390;-59
2023/09/22 15:40:12;;;;;;;4.72;0.60;;;;;;;21.30;45.07;100114.81;16114305;19;129482;-59
2023/09/22 15:45:34;;;;;;;1.92;0.70;;;;;;;21.28;44.76;100129.00;16116520;19;130642;-59
2023/09/22 15:50:57;;;;;;;2.33;0.70;;;;;;;21.27;44.78;100132.09;16111616;19;129800;-58
2023/09/22 15:56:19;;;;;;;2.05;0.90;;;;;;;21.26;44.71;100147.13;16114502;19;129957;-59
2023/09/22 16:01:43;;;;;;;4.00;0.70;;;;;;;21.22;45.00;100153.22;16110989;19;130869;-59
2023/09/22 16:07:05;;;;;;;1.40;0.57;;;;;;;21.21;45.02;100154.34;16100635;19;130460;-60
2023/09/22 16:12:28;;;;;;;1.42;0.70;;;;;;;21.18;44.72;100151.31;16105592;19;131137;-59
2023/09/22 16:17:51;;;;;;;4.30;0.57;;;;;;;21.13;44.74;100154.94;16110244;19;129754;-58
2023/09/22 16:23:15;;;;;;;4.07;0.70;;;;;;;21.11;44.81;100162.72;16112123;19;129524;-59
2023/09/22 16:28:39;;;;;;;5.53;0.90;;;;;;;21.11;44.90;100179.41;16113510;19;129759;-59
2023/09/22 16:34:01;;;;;;;2.05;0.90;;;;;;;21.12;45.10;100191.34;16111306;19;130839;-59
2023/09/22 16:39:23;;;;;;;11.48;4.57;;;;;;;21.13;45.24;100187.47;16106333;19;129509;-59
2023/09/22 16:44:47;;;;;;;16.70;5.97;;;;;;;21.15;45.31;100200.00;16115200;19;130680;-62
2023/09/22 16:50:10;;;;;;;13.10;4.70;;;;;;;21.16;45.74;100212.78;16124067;19;130555;-59
2023/09/22 16:55:33;;;;;;;10.43;4.30;;;;;;;21.18;45.83;100213.31;16116584;19;131123;-60
2023/09/22 17:00:58;;;;;;;9.52;3.92;;;;;;;21.20;45.69;100225.00;16126244;19;129745;-59
2023/09/22 17:06:21;;;;;;;9.67;3.90;;;;;;;21.19;46.10;100226.13;16124798;19;130755;-59
2023/09/22 17:11:43;;;;;;;7.18;2.90;;;;;;;21.20;45.98;100227.78;16125100;19;131066;-59
2023/09/22 17:17:05;;;;;;;8.52;2.97;;;;;;;21.20;46.44;100229.75;16115901;19;129573;-59
2023/09/22 17:22:28;;;;;;;7.93;3.20;;;;;;;21.19;46.83;100236.41;16120493;19;131380;-59
2023/09/22 17:27:51;;;;;;;7.75;3.00;;;;;;;21.19;46.59;100256.72;16125894;19;129774;-59
2023/09/22 17:33:17;;;;;;;5.53;2.50;;;;;;;21.18;47.05;100252.25;16126713;19;134228;-59
2023/09/22 17:38:42;;;;;;;12.30;2.95;;;;;;;21.18;46.62;100266.16;16121016;19;129996;-59
2023/09/22 17:44:05;;;;;;;10.30;2.58;;;;;;;21.18;46.45;100276.47;16119672;19;130084;-60
2023/09/22 17:49:28;;;;;;;7.32;2.05;;;;;;;21.17;46.60;100281.19;16114072;19;131869;-59
2023/09/22 17:54:51;;;;;;;14.68;3.17;;;;;;;21.15;47.05;100285.38;16123054;19;129865;-58
2023/09/22 18:00:13;;;;;;;8.88;2.33;;;;;;;21.14;46.81;100295.69;16122690;19;134075;-59
2023/09/22 18:05:35;;;;;;;11.40;2.17;;;;;;;21.13;46.58;100307.91;16120718;19;129542;-58
2023/09/22 18:10:57;;;;;;;4.93;1.90;;;;;;;21.12;46.86;100319.28;16123845;19;129604;-59
2023/09/22 18:16:22;;;;;;;8.82;1.85;;;;;;;21.09;46.89;100326.25;16120207;19;129448;-59
2023/09/22 18:21:44;;;;;;;3.97;2.27;;;;;;;21.08;46.57;100335.72;16119876;19;130324;-59
2023/09/22 18:27:06;;;;;;;12.65;2.25;;;;;;;21.05;46.59;100353.78;16114625;19;129949;-56
2023/09/22 18:32:28;;;;;;;8.65;2.10;;;;;;;21.04;46.71;100362.44;16116057;19;131217;-57
2023/09/22 18:37:50;;;;;;;9.85;1.83;;;;;;;21.03;46.76;100366.31;16121794;19;132113;-57
2023/09/22 18:43:13;;;;;;;6.28;1.90;;;;;;;21.02;46.54;100376.59;16119885;19;129247;-59
2023/09/22 18:48:35;;;;;;;12.35;1.80;;;;;;;21.02;46.49;100386.91;16114704;19;130870;-57
2023/09/22 18:53:57;;;;;;;5.28;1.55;;;;;;;21.01;46.91;100405.50;16120192;19;129632;-57
2023/09/22 18:59:21;;;;;;;5.07;1.60;;;;;;;20.99;46.64;100413.28;16118506;19;131267;-56
2023/09/22 19:04:43;;;;;;;5.18;1.55;;;;;;;20.99;46.74;100426.38;16111604;19;129891;-61
2023/09/22 19:10:06;;;;;;;4.63;1.73;;;;;;;20.98;46.49;100441.38;16116311;19;129905;-58
2023/09/22 19:15:28;;;;;;;3.22;1.73;;;;;;;20.97;46.38;100456.38;16110899;19;134716;-56
2023/09/22 19:20:50;;;;;;;4.15;1.50;;;;;;;20.96;46.44;100469.47;16114357;19;130275;-57
2023/09/22 19:26:12;;;;;;;4.75;1.50;;;;;;;20.94;46.69;100468.91;16111740;19;130926;-56
2023/09/22 19:31:34;;;;;;;3.42;1.17;;;;;;;20.95;46.55;100483.63;16110577;19;129496;-57
2023/09/22 19:36:57;;;;;;;2.80;1.27;;;;;;;20.93;46.58;100478.34;16112149;19;131112;-58
2023/09/22 19:42:19;;;;;;;3.70;1.00;;;;;;;20.92;46.60;100485.03;16109441;19;129946;-55
2023/09/22 19:47:41;;;;;;;5.20;1.17;;;;;;;20.92;46.72;100489.75;16108829;19;130167;-56
2023/09/22 19:53:10;;;;;;;6.35;1.40;;;;;;;20.91;46.50;100497.25;16106942;19;131326;-58
2023/09/22 19:58:32;;;;;;;66.07;5.80;;;;;;;20.89;46.67;100505.03;16114280;19;130007;-57
2023/09/22 20:03:54;;;;;;;20.98;2.25;;;;;;;20.89;46.57;100500.31;16112522;19;129909;-58
2023/09/22 20:09:18;;;;;;;22.75;2.30;;;;;;;20.92;46.60;100523.94;16111994;19;129445;-58
2023/09/22 20:14:40;;;;;;;22.38;2.40;;;;;;;20.94;46.78;100523.66;16110895;19;130461;-58
2023/09/22 20:20:05;;;;;;;14.60;2.88;;;;;;;20.94;46.60;100520.88;16110960;19;129924;-57
2023/09/22 20:25:27;;;;;;;21.43;2.53;;;;;;;20.93;46.56;100528.41;16110325;19;129476;-59
2023/09/22 20:30:49;;;;;;;9.82;2.38;;;;;;;20.93;46.56;100524.78;16115140;19;130216;-58
2023/09/22 20:36:12;;;;;;;14.68;2.78;;;;;;;20.90;47.06;100527.00;16110658;19;129664;-59
2023/09/22 20:41:34;;;;;;;17.20;2.47;;;;;;;20.90;46.65;100531.72;16111531;19;129305;-59
2023/09/22 20:46:56;;;;;;;12.05;2.25;;;;;;;20.90;46.62;100540.91;16110662;19;129876;-58
2023/09/22 20:52:20;;;;;;;18.95;2.78;;;;;;;20.92;47.13;100545.38;16111403;19;130731;-59
2023/09/22 20:57:44;;;;;;;19.98;2.60;;;;;;;20.90;46.86;100552.03;16111090;19;129444;-58
2023/09/22 21:03:16;;;;;;;17.80;2.53;;;;;;;20.93;47.12;100549.78;16113230;19;129532;-57
2023/09/22 21:08:41;;;;;;;10.50;2.40;;;;;;;20.90;46.68;100556.75;16111383;19;131646;-57
2023/09/22 21:14:04;;;;;;;18.15;2.15;;;;;;;20.89;47.23;100561.47;16111519;19;129768;-58
2023/09/22 21:19:27;;;;;;;17.67;2.05;;;;;;;20.90;46.96;100560.38;16106593;19;129648;-58
2023/09/22 21:24:49;;;;;;;13.07;1.77;;;;;;;20.88;47.26;100557.03;16108501;19;128850;-58
2023/09/22 21:30:18;;;;;;;9.70;1.67;;;;;;;20.91;47.28;100563.97;16108255;19;129439;-57
2023/09/22 21:35:40;;;;;;;6.88;2.13;;;;;;;20.89;46.87;100567.03;16103894;19;130114;-57
2023/09/22 21:41:09;;;;;;;14.20;2.35;;;;;;;20.90;46.93;100576.22;16118891;19;130803;-54
2023/09/22 21:46:31;;;;;;;7.55;1.70;;;;;;;20.96;46.98;100588.19;16119289;19;130643;-64
2023/09/22 21:51:53;;;;;;;14.25;1.70;;;;;;;20.99;46.87;100590.44;16123348;19;131847;-65
2023/09/22 21:57:17;;;;;;;7.20;1.33;;;;;;;21.00;46.31;100603.25;16122695;19;131212;-59
2023/09/22 22:02:39;;;;;;;16.92;1.55;;;;;;;20.99;46.60;100610.72;16115464;19;129751;-51
2023/09/22 22:08:13;;;;;;;5.85;1.45;;;;;;;21.00;46.35;100617.16;16119020;19;129851;-54
2023/09/22 22:13:39;;;;;;;8.85;1.52;;;;;;;20.98;46.37;100616.56;16118681;19;131740;-50
2023/09/22 22:19:01;;;;;;;8.82;1.25;;;;;;;20.97;46.40;100623.25;16117677;19;129853;-48
2023/09/22 22:24:23;;;;;;;8.02;1.55;;;;;;;20.97;46.23;100626.03;16119245;19;130356;-49
2023/09/22 22:29:47;;;;;;;9.02;1.52;;;;;;;20.97;46.30;100629.66;16122078;19;129968;-53
2023/09/22 22:35:11;;;;;;;7.28;1.20;;;;;;;20.97;46.58;100628.81;16120167;19;130086;-51
2023/09/22 22:40:33;;;;;;;7.28;1.23;;;;;;;20.96;46.23;100630.75;16117638;19;135980;-50
2023/09/22 22:45:55;;;;;;;5.13;1.00;;;;;;;20.95;46.31;100637.44;16120565;19;129566;-53
2023/09/22 22:51:18;;;;;;;7.43;1.20;;;;;;;20.94;46.33;100634.91;16117481;19;129874;-53
2023/09/22 22:56:40;;;;;;;10.50;1.10;;;;;;;20.93;46.78;100630.44;16113774;19;131302;-53
2023/09/22 23:02:03;;;;;;;9.40;1.50;;;;;;;20.90;46.45;100635.47;16117149;19;129628;-50
2023/09/22 23:07:26;;;;;;;5.65;1.10;;;;;;;20.88;46.75;100631.25;16110614;19;130581;-54
2023/09/22 23:12:48;;;;;;;2.60;0.90;;;;;;;20.86;46.60;100634.31;16113295;19;129943;-49
2023/09/22 23:18:13;;;;;;;5.65;1.20;;;;;;;20.85;46.42;100638.19;16115047;19;131016;-52
2023/09/22 23:23:36;;;;;;;11.90;1.33;;;;;;;20.83;46.41;100637.63;16105181;19;129334;-49
2023/09/22 23:28:58;;;;;;;3.33;1.08;;;;;;;20.82;46.53;100638.72;16112035;19;130493;-50
2023/09/22 23:34:22;;;;;;;3.90;1.15;;;;;;;20.81;46.69;100639.81;16110613;19;129928;-54
2023/09/22 23:39:44;;;;;;;3.22;1.15;;;;;;;20.78;46.52;100657.06;16108414;19;129799;-55
2023/09/22 23:45:11;;;;;;;7.43;1.13;;;;;;;20.78;46.46;100645.09;16107228;19;131828;-52
2023/09/22 23:50:35;;;;;;;3.00;1.00;;;;;;;20.76;46.81;100662.06;16111826;19;131497;-47
2023/09/22 23:56:01;;;;;;;3.38;1.15;;;;;;;20.75;46.99;100671.47;16108564;19;131273;-52
